Time;durP1;ratioP1;P1;durP2;ratioP2;P2;SDS_P1;SDS_P2;PMS_P1;PMS_P2;Temp;Humidity;BMP_temperature;BMP_pressure;BME280_temperature;BME280_humidity;BME280_pressure;Samples;Min_cycle;Max_cycle;Signal;HPM_P1;HPM_P2
2024/03/29 01:45:12;;;;;;;4.20;1.47;;;9.80;99.90;;;;;;4955696;29;20231;-61
2024/03/29 01:47:40;;;;;;;3.37;1.57;;;9.90;99.90;;;;;;4936832;29;20539;-61
2024/03/29 01:50:10;;;;;;;4.33;1.40;;;9.80;99.90;;;;;;4936982;29;20634;-62
2024/03/29 01:52:37;;;;;;;2.77;1.30;;;9.80;99.90;;;;;;4943737;29;20220;-62
2024/03/29 01:55:05;;;;;;;1.80;1.60;;;9.80;99.90;;;;;;4937944;29;20303;-61
2024/03/29 01:57:33;;;;;;;1.50;1.30;;;9.80;99.90;;;;;;4944176;29;20250;-61
2024/03/29 02:00:00;;;;;;;3.63;1.20;;;9.90;99.90;;;;;;4955809;29;20228;-61
2024/03/29 02:02:28;;;;;;;1.67;1.30;;;9.90;99.90;;;;;;4934386;29;20197;-61
2024/03/29 02:04:56;;;;;;;1.17;1.17;;;9.90;99.90;;;;;;4917183;29;20229;-62
2024/03/29 02:07:26;;;;;;;1.80;1.57;;;9.80;99.90;;;;;;4933594;29;20236;-60
2024/03/29 02:09:54;;;;;;;2.10;1.23;;;9.80;99.90;;;;;;4951673;29;20286;-61
2024/03/29 02:12:20;;;;;;;2.77;1.30;;;9.80;99.90;;;;;;4938265;29;20307;-61
2024/03/29 02:14:47;;;;;;;4.03;1.60;;;9.70;99.90;;;;;;4936554;29;20287;-62
2024/03/29 02:17:15;;;;;;;3.27;1.30;;;9.70;99.90;;;;;;4936948;29;20660;-61
2024/03/29 02:19:42;;;;;;;4.30;1.30;;;9.70;99.90;;;;;;4937875;29;20228;-61
2024/03/29 02:22:14;;;;;;;1.10;1.10;;;9.60;99.90;;;;;;4919893;29;20294;-62
2024/03/29 02:24:42;;;;;;;2.47;1.27;;;9.60;99.90;;;;;;4935591;29;20373;-61
2024/03/29 02:27:10;;;;;;;1.00;1.00;;;9.50;99.90;;;;;;4920260;29;20311;-61
2024/03/29 02:29:38;;;;;;;2.80;1.20;;;9.50;99.90;;;;;;4954958;28;20278;-61
2024/03/29 02:32:05;;;;;;;1.30;1.20;;;9.40;99.90;;;;;;4955621;29;20287;-61
2024/03/29 02:34:33;;;;;;;1.07;0.97;;;9.30;99.90;;;;;;4949131;29;20703;-61
2024/03/29 02:37:00;;;;;;;1.00;1.00;;;9.30;99.90;;;;;;4935305;29;20255;-61
2024/03/29 02:39:27;;;;;;;1.60;1.27;;;9.20;99.90;;;;;;4943267;29;20224;-61
2024/03/29 02:41:56;;;;;;;1.17;1.17;;;9.20;99.90;;;;;;4945540;28;20244;-62
2024/03/29 02:44:23;;;;;;;1.70;1.17;;;9.20;1.00;;;;;;4936035;29;20300;-61
2024/03/29 02:46:50;;;;;;;9.73;1.37;;;9.20;1.00;;;;;;4950273;29;20248;-62
2024/03/29 02:49:17;;;;;;;1.33;1.10;;;9.10;86.10;;;;;;4954839;29;20232;-61
2024/03/29 02:51:44;;;;;;;1.20;1.20;;;9.10;92.10;;;;;;4954715;29;20227;-61
2024/03/29 02:54:12;;;;;;;1.30;1.30;;;8.90;30.00;;;;;;4948224;28;20265;-61
2024/03/29 02:56:38;;;;;;;1.27;1.23;;;8.80;63.50;;;;;;4941858;28;20205;-61
2024/03/29 02:59:07;;;;;;;1.50;1.40;;;8.70;64.10;;;;;;4935706;29;20715;-61
2024/03/29 03:01:33;;;;;;;2.17;1.30;;;8.60;88.90;;;;;;4935810;29;20731;-61
2024/03/29 03:04:01;;;;;;;2.13;1.30;;;8.60;81.70;;;;;;4935523;29;20579;-62
2024/03/29 03:06:27;;;;;;;2.23;1.50;;;8.50;91.60;;;;;;4935175;29;20311;-62
2024/03/29 03:11:40;;;;;;;1.30;1.30;;;8.50;99.90;;;;;;4916164;29;20203;-62
2024/03/29 03:14:08;;;;;;;3.53;1.50;;;8.50;93.70;;;;;;4916738;29;20201;-61
2024/03/29 03:16:35;;;;;;;4.57;1.47;;;8.50;99.90;;;;;;4916049;29;20632;-61
2024/03/29 03:19:02;;;;;;;5.13;1.50;;;8.40;99.90;;;;;;4915938;29;20225;-62
2024/03/29 03:21:28;;;;;;;5.43;1.57;;;8.30;99.90;;;;;;4916153;29;20233;-61
2024/03/29 03:23:56;;;;;;;2.40;1.47;;;8.20;99.90;;;;;;4929257;29;20225;-62
2024/03/29 03:26:22;;;;;;;5.40;2.20;;;8.10;99.90;;;;;;4935256;29;20284;-62
2024/03/29 03:28:50;;;;;;;3.80;1.80;;;8.00;99.90;;;;;;4935244;29;20311;-61
2024/03/29 03:31:17;;;;;;;4.80;1.77;;;7.90;99.90;;;;;;4934912;29;20228;-62
2024/03/29 03:33:45;;;;;;;6.03;1.87;;;7.90;99.90;;;;;;4955340;23;20238;-61
2024/03/29 03:39:40;;;;;;;3.63;1.93;;;7.80;99.90;;;;;;4935716;28;20239;-61
2024/03/29 03:42:06;;;;;;;7.03;2.13;;;7.70;99.90;;;;;;4959114;28;20278;-62
2024/03/29 03:44:33;;;;;;;4.47;2.10;;;7.70;99.90;;;;;;4966980;28;20291;-60
2024/03/29 03:47:37;;;;;;;4.70;2.67;;;7.60;99.90;;;;;;4953304;29;20250;-61
2024/03/29 03:50:25;;;;;;;4.87;2.63;;;7.60;99.90;;;;;;4956114;28;20267;-61
2024/03/29 03:52:52;;;;;;;8.27;3.03;;;7.50;99.90;;;;;;4946655;28;20219;-61
2024/03/29 03:55:19;;;;;;;9.13;2.80;;;7.60;99.90;;;;;;4972903;28;20223;-61
2024/03/29 03:57:46;;;;;;;6.23;2.73;;;7.60;99.90;;;;;;4961204;28;20224;-61
2024/03/29 04:00:14;;;;;;;5.67;2.80;;;7.50;99.90;;;;;;4953234;28;20311;-61
2024/03/29 04:02:41;;;;;;;9.80;2.40;;;7.50;99.90;;;;;;4961460;28;20254;-61
2024/03/29 04:05:09;;;;;;;7.87;2.60;;;7.50;99.90;;;;;;4961494;28;20192;-61
2024/03/29 04:07:37;;;;;;;3.37;2.80;;;7.40;99.90;;;;;;4953188;28;20304;-61
2024/03/29 04:10:04;;;;;;;7.90;2.47;;;7.40;99.90;;;;;;4948591;28;20232;-61
2024/03/29 04:12:31;;;;;;;7.30;2.83;;;7.40;99.90;;;;;;4946896;28;20227;-61
2024/03/29 04:15:19;;;;;;;4.57;2.60;;;7.50;99.90;;;;;;4953029;28;20229;-61
2024/03/29 04:18:06;;;;;;;4.73;2.33;;;7.40;99.90;;;;;;4934285;28;20217;-61
2024/03/29 04:20:56;;;;;;;4.70;2.37;;;7.40;99.90;;;;;;4958128;28;20306;-60
2024/03/29 04:23:44;;;;;;;5.07;2.30;;;7.40;99.90;;;;;;4959796;28;20208;-61
2024/03/29 04:26:12;;;;;;;5.50;2.70;;;7.40;99.90;;;;;;4971077;28;20645;-61
2024/03/29 04:28:38;;;;;;;6.20;2.80;;;7.40;99.90;;;;;;4958745;28;20226;-61
2024/03/29 04:31:05;;;;;;;5.60;2.67;;;7.40;99.90;;;;;;4964848;28;20250;-61
2024/03/29 04:33:32;;;;;;;5.07;2.60;;;7.40;99.90;;;;;;4953085;28;20236;-61
2024/03/29 04:36:00;;;;;;;7.97;2.83;;;7.40;99.90;;;;;;4940871;28;20246;-61
2024/03/29 04:38:29;;;;;;;3.23;2.53;;;7.30;99.90;;;;;;4945333;28;20284;-61
2024/03/29 04:41:16;;;;;;;3.40;2.50;;;7.30;99.90;;;;;;4941899;28;20573;-61
2024/03/29 04:43:45;;;;;;;3.83;2.50;;;7.30;99.90;;;;;;4966565;28;20366;-60
2024/03/29 04:46:14;;;;;;;7.93;2.67;;;7.30;99.90;;;;;;4943788;28;20233;-61
2024/03/29 04:48:43;;;;;;;4.13;2.70;;;7.30;99.90;;;;;;4939769;29;20228;-61
2024/03/29 04:51:11;;;;;;;9.33;3.13;;;7.20;99.90;;;;;;4971386;28;20693;-60
2024/03/29 04:53:39;;;;;;;4.73;2.80;;;7.20;99.90;;;;;;4960467;28;20198;-60
2024/03/29 04:56:07;;;;;;;6.43;3.10;;;7.20;99.90;;;;;;4950207;29;20287;-61
2024/03/29 04:58:36;;;;;;;5.47;2.80;;;7.20;99.90;;;;;;4944550;28;20228;-61
2024/03/29 05:01:04;;;;;;;5.33;2.90;;;7.20;99.90;;;;;;4940756;29;20220;-61
2024/03/29 05:03:31;;;;;;;8.93;3.47;;;7.20;99.90;;;;;;4957443;28;20225;-61
2024/03/29 05:05:58;;;;;;;6.93;3.17;;;7.20;99.90;;;;;;4945313;28;20248;-61
2024/03/29 05:08:26;;;;;;;5.23;3.13;;;7.20;99.90;;;;;;4938074;29;20619;-61
2024/03/29 05:11:31;;;;;;;6.13;3.17;;;7.20;99.90;;;;;;4940203;29;20223;-61
2024/03/29 05:14:35;;;;;;;8.27;3.70;;;7.20;99.90;;;;;;4951954;29;20231;-61
2024/03/29 05:17:04;;;;;;;7.67;3.73;;;7.20;99.90;;;;;;4940666;28;20319;-61
2024/03/29 05:19:32;;;;;;;7.93;3.77;;;7.20;99.90;;;;;;4963920;28;20235;-61
2024/03/29 05:22:02;;;;;;;9.37;4.10;;;7.20;99.90;;;;;;4960291;28;20625;-60
2024/03/29 05:24:53;;;;;;;8.83;4.07;;;7.10;99.90;;;;;;4963577;28;20649;-61
2024/03/29 05:27:39;;;;;;;10.93;4.37;;;7.10;99.90;;;;;;4943568;29;20224;-61
2024/03/29 05:30:09;;;;;;;10.90;4.40;;;7.10;99.90;;;;;;4940020;29;20220;-61
2024/03/29 05:32:56;;;;;;;10.00;4.17;;;7.10;99.90;;;;;;4963319;28;20227;-61
2024/03/29 05:35:42;;;;;;;13.90;4.97;;;7.10;99.90;;;;;;4958075;28;20204;-61
2024/03/29 05:38:31;;;;;;;7.53;4.03;;;7.10;99.90;;;;;;4955703;29;20270;-61
2024/03/29 05:40:58;;;;;;;10.37;5.03;;;7.00;99.90;;;;;;4937037;29;20204;-61
2024/03/29 05:43:46;;;;;;;9.27;4.00;;;7.00;99.90;;;;;;4968197;28;20224;-61
2024/03/29 05:46:17;;;;;;;10.37;3.77;;;7.10;99.90;;;;;;4953379;28;20315;-61
2024/03/29 05:48:46;;;;;;;6.80;3.63;;;7.10;99.90;;;;;;4949381;29;20229;-61
2024/03/29 05:51:13;;;;;;;4.33;2.97;;;7.10;99.90;;;;;;4946211;29;20332;-61
2024/03/29 05:53:40;;;;;;;5.17;3.30;;;7.20;99.90;;;;;;4949608;29;20201;-60
2024/03/29 05:56:08;;;;;;;4.53;2.73;;;7.20;99.90;;;;;;4956427;28;20218;-60
2024/03/29 05:58:36;;;;;;;2.60;2.40;;;7.10;99.90;;;;;;4921974;29;20308;-60
2024/03/29 06:01:03;;;;;;;3.77;2.20;;;7.20;99.90;;;;;;4936788;29;20311;-61
2024/03/29 06:03:54;;;;;;;4.00;2.37;;;7.20;99.90;;;;;;4946245;28;20287;-61
2024/03/29 06:06:24;;;;;;;5.53;2.10;;;7.20;99.90;;;;;;4955386;29;20255;-61
2024/03/29 06:08:51;;;;;;;9.43;2.23;;;7.30;99.90;;;;;;4938334;28;20595;-61
2024/03/29 06:11:40;;;;;;;5.03;2.33;;;7.30;99.90;;;;;;4949829;28;20203;-60
2024/03/29 06:20:22;;;;;;;2.63;2.27;;;7.40;99.90;;;;;;4936150;29;20251;-61
2024/03/29 06:22:49;;;;;;;1.87;1.77;;;7.40;99.90;;;;;;4951575;28;20216;-61
2024/03/29 06:25:16;;;;;;;2.33;1.80;;;7.40;99.90;;;;;;4955036;29;20223;-61
2024/03/29 06:27:47;;;;;;;2.70;2.20;;;7.50;99.90;;;;;;4957701;28;20306;-60
2024/03/29 06:30:16;;;;;;;1.97;1.87;;;7.40;99.90;;;;;;4962093;28;20311;-61
2024/03/29 06:32:44;;;;;;;2.10;2.00;;;7.50;99.90;;;;;;4962231;28;20270;-61
2024/03/29 06:35:12;;;;;;;1.90;1.80;;;7.50;99.90;;;;;;4951278;28;20278;-61
2024/03/29 06:37:42;;;;;;;2.50;2.30;;;7.60;99.90;;;;;;4948477;28;20251;-61
2024/03/29 06:40:11;;;;;;;3.67;2.20;;;7.60;99.90;;;;;;4973267;28;20238;-61
2024/03/29 06:42:39;;;;;;;2.03;1.93;;;7.60;99.90;;;;;;4949076;29;20466;-61
2024/03/29 06:45:09;;;;;;;2.80;2.00;;;7.70;99.90;;;;;;4948560;29;20231;-60
2024/03/29 06:47:36;;;;;;;2.00;1.90;;;7.70;99.90;;;;;;4944255;29;20212;-60
2024/03/29 06:50:04;;;;;;;3.50;2.03;;;7.70;99.90;;;;;;4940571;28;20207;-60
2024/03/29 06:52:32;;;;;;;3.10;1.90;;;7.70;99.90;;;;;;4921198;29;20669;-61
2024/03/29 06:55:19;;;;;;;1.90;1.80;;;7.80;99.90;;;;;;4934768;28;20578;-61
2024/03/29 06:57:47;;;;;;;4.83;2.00;;;7.80;99.90;;;;;;4936372;28;20319;-60
2024/03/29 07:00:17;;;;;;;2.20;2.00;;;7.90;99.90;;;;;;4954419;28;20682;-61
2024/03/29 07:03:03;;;;;;;2.37;1.80;;;7.90;99.90;;;;;;4948554;28;20189;-61
2024/03/29 07:05:31;;;;;;;2.03;1.90;;;8.00;99.90;;;;;;4938299;28;20199;-60
2024/03/29 07:07:59;;;;;;;2.70;1.70;;;8.10;99.90;;;;;;4941103;28;20328;-61
2024/03/29 07:10:29;;;;;;;1.93;1.70;;;8.00;99.90;;;;;;4934734;29;20247;-61
2024/03/29 07:16:20;;;;;;;1.90;1.80;;;8.10;99.90;;;;;;4959693;28;20262;-61
2024/03/29 07:19:07;;;;;;;2.17;2.07;;;8.20;99.90;;;;;;4944105;28;20240;-61
2024/03/29 07:21:35;;;;;;;2.27;2.07;;;8.30;99.90;;;;;;4937142;29;20262;-61
2024/03/29 07:24:02;;;;;;;1.80;1.70;;;8.30;99.90;;;;;;4936038;29;20312;-61
2024/03/29 07:26:31;;;;;;;2.43;2.00;;;8.40;99.90;;;;;;4935868;29;20287;-61
2024/03/29 07:28:58;;;;;;;2.03;1.93;;;8.40;99.90;;;;;;4949008;28;20339;-61
2024/03/29 07:31:26;;;;;;;2.40;2.10;;;8.40;99.90;;;;;;4949490;28;20241;-61
2024/03/29 07:33:53;;;;;;;2.10;2.00;;;8.40;99.90;;;;;;4951505;28;20737;-61
2024/03/29 07:40:03;;;;;;;2.43;1.87;;;8.40;99.90;;;;;;4936310;28;20275;-61
2024/03/29 07:42:32;;;;;;;2.47;1.90;;;8.50;99.90;;;;;;4961790;28;20234;-61
2024/03/29 07:45:39;;;;;;;2.40;2.00;;;8.60;99.90;;;;;;4936435;28;20232;-60
2024/03/29 07:48:08;;;;;;;4.93;2.83;;;8.70;99.90;;;;;;4934332;29;20258;-62
2024/03/29 07:50:36;;;;;;;2.23;2.13;;;8.80;99.90;;;;;;4950291;28;20304;-62
2024/03/29 07:53:04;;;;;;;8.50;2.40;;;8.90;99.90;;;;;;4936590;29;20205;-62
2024/03/29 07:55:33;;;;;;;2.50;2.30;;;9.10;99.90;;;;;;4923202;29;20228;-62
2024/03/29 08:01:28;;;;;;;4.17;2.30;;;9.60;99.90;;;;;;4935559;29;20229;-62
2024/03/29 08:03:55;;;;;;;4.40;2.40;;;10.40;99.90;;;;;;4950540;28;20327;-62
2024/03/29 08:06:24;;;;;;;6.03;2.40;;;10.90;99.90;;;;;;4963594;28;20309;-62
2024/03/29 08:08:52;;;;;;;3.07;2.10;;;11.00;99.90;;;;;;4955880;28;20284;-62
2024/03/29 08:11:19;;;;;;;4.80;2.20;;;11.00;99.90;;;;;;4942778;29;20234;-62
2024/03/29 08:14:25;;;;;;;2.43;2.13;;;11.00;99.90;;;;;;4945828;29;20310;-62
2024/03/29 08:20:18;;;;;;;2.67;2.40;;;10.80;99.90;;;;;;4972734;28;20588;-62
2024/03/29 08:23:07;;;;;;;2.30;2.07;;;11.30;99.90;;;;;;4975354;28;20226;-62
2024/03/29 08:25:34;;;;;;;4.63;2.13;;;11.80;99.90;;;;;;4951510;29;20290;-62
2024/03/29 08:28:02;;;;;;;2.40;2.20;;;11.90;99.90;;;;;;4950024;28;20208;-62
2024/03/29 08:30:58;;;;;;;4.67;2.30;;;11.90;99.90;;;;;;4946290;29;20311;-62
2024/03/29 08:33:25;;;;;;;3.47;2.40;;;12.00;99.90;;;;;;4950879;28;21274;-62
2024/03/29 08:36:15;;;;;;;2.47;2.27;;;12.20;99.90;;;;;;4965688;28;20232;-63
2024/03/29 08:42:06;;;;;;;2.30;2.17;;;13.00;99.90;;;;;;4940845;29;20314;-62
2024/03/29 08:44:34;;;;;;;2.50;2.07;;;13.30;99.90;;;;;;4941325;28;20278;-61
2024/03/29 08:47:02;;;;;;;2.33;2.13;;;13.60;99.90;;;;;;4957290;29;20193;-62
2024/03/29 08:49:30;;;;;;;2.10;1.90;;;14.00;80.60;;;;;;4947344;29;20239;-63
2024/03/29 08:52:04;;;;;;;2.80;2.00;;;14.40;57.40;;;;;;4949014;29;20757;-61
2024/03/29 08:58:13;;;;;;;2.57;2.20;;;14.80;1.00;;;;;;4941703;29;20232;-62
2024/03/29 09:00:40;;;;;;;2.33;2.00;;;14.60;51.30;;;;;;4947591;29;20276;-62
2024/03/29 09:03:08;;;;;;;2.93;1.90;;;14.50;68.40;;;;;;4937660;29;20224;-63
2024/03/29 09:05:36;;;;;;;3.22;1.83;;;14.30;78.60;;;;;;4948001;29;20425;-62
2024/03/29 09:08:05;;;;;;;1.77;1.67;;;14.20;90.30;;;;;;4955254;28;20188;-62
2024/03/29 09:10:32;;;;;;;1.80;1.47;;;13.70;99.90;;;;;;4959899;28;20265;-62
2024/03/29 09:13:00;;;;;;;2.97;1.70;;;13.40;99.90;;;;;;4957144;28;20260;-63
2024/03/29 09:15:27;;;;;;;2.05;1.95;;;13.10;99.90;;;;;;4955703;28;20887;-63
2024/03/29 09:17:55;;;;;;;1.93;1.83;;;12.80;99.90;;;;;;4962464;28;20290;-61
2024/03/29 09:20:22;;;;;;;1.87;1.83;;;12.60;99.90;;;;;;4976275;28;20290;-61
2024/03/29 09:26:16;;;;;;;3.17;1.93;;;12.80;99.90;;;;;;4928026;29;20304;-61
2024/03/29 09:28:44;;;;;;;1.53;1.43;;;12.90;99.90;;;;;;4950739;29;20550;-61
2024/03/29 09:31:31;;;;;;;5.50;1.70;;;13.10;99.90;;;;;;4955964;28;20232;-62
2024/03/29 09:33:59;;;;;;;1.87;1.70;;;13.00;99.90;;;;;;4952336;28;20240;-61
2024/03/29 09:36:26;;;;;;;1.67;1.50;;;13.00;99.90;;;;;;4952701;29;20310;-62
2024/03/29 09:39:32;;;;;;;1.83;1.60;;;13.20;99.90;;;;;;4971973;28;20318;-62
2024/03/29 09:42:37;;;;;;;2.27;1.50;;;13.20;99.90;;;;;;4936600;29;20236;-62
2024/03/29 09:45:44;;;;;;;2.03;1.80;;;13.20;99.90;;;;;;4938317;29;20231;-62
2024/03/29 09:48:14;;;;;;;1.40;1.40;;;13.10;99.90;;;;;;4936760;29;20232;-62
2024/03/29 09:54:23;;;;;;;4.30;1.50;;;14.10;99.90;;;;;;4947397;28;20627;-62
2024/03/29 09:57:30;;;;;;;2.00;1.77;;;15.10;99.90;;;;;;4955560;28;20279;-62
2024/03/29 10:03:50;;;;;;;1.53;1.30;;;16.10;99.90;;;;;;4957083;28;20220;-62
2024/03/29 10:06:19;;;;;;;1.87;1.73;;;16.70;99.90;;;;;;4955450;29;20234;-62
2024/03/29 10:08:48;;;;;;;1.17;1.17;;;16.70;99.90;;;;;;4968296;28;20190;-62
2024/03/29 10:11:18;;;;;;;1.20;1.20;;;16.20;99.90;;;;;;4955819;29;20198;-62
2024/03/29 10:13:46;;;;;;;1.67;1.30;;;15.50;99.90;;;;;;4937274;29;20755;-62
2024/03/29 10:16:18;;;;;;;1.60;1.50;;;15.00;99.90;;;;;;4936126;29;20820;-62
2024/03/29 10:22:28;;;;;;;1.40;1.30;;;15.60;99.90;;;;;;4951053;28;20223;-63
2024/03/29 10:28:20;;;;;;;1.43;1.43;;;16.60;99.90;;;;;;4949852;29;20301;-61
2024/03/29 10:30:49;;;;;;;1.10;1.10;;;17.10;99.90;;;;;;4951001;28;20323;-62
2024/03/29 10:33:54;;;;;;;1.53;1.37;;;17.40;99.90;;;;;;4935631;29;20231;-63
2024/03/29 10:36:22;;;;;;;1.20;1.20;;;18.00;99.90;;;;;;4950597;28;20212;-62
2024/03/29 10:38:53;;;;;;;1.10;1.10;;;17.80;99.90;;;;;;4936387;29;20220;-62
2024/03/29 10:45:01;;;;;;;1.20;1.20;;;16.70;99.90;;;;;;4936127;29;20234;-62
2024/03/29 10:47:31;;;;;;;1.40;1.30;;;16.50;99.90;;;;;;4936025;29;20635;-62
2024/03/29 10:49:59;;;;;;;1.10;1.10;;;16.60;99.90;;;;;;4936022;29;20233;-63
2024/03/29 10:56:14;;;;;;;1.20;1.20;;;16.80;99.90;;;;;;4948120;28;20305;-63
2024/03/29 10:58:49;;;;;;;1.63;1.00;;;16.70;99.90;;;;;;4971957;28;20577;-63
2024/03/29 11:01:18;;;;;;;1.47;1.10;;;16.90;99.90;;;;;;4954614;29;20709;-62
2024/03/29 11:07:27;;;;;;;2.00;1.27;;;17.20;99.90;;;;;;4955825;28;20227;-62
2024/03/29 11:10:00;;;;;;;1.10;1.07;;;17.70;99.90;;;;;;4954850;28;20251;-63
2024/03/29 11:12:31;;;;;;;1.60;1.50;;;17.60;99.90;;;;;;4954397;28;20224;-62
2024/03/29 11:15:04;;;;;;;1.00;1.00;;;16.80;99.90;;;;;;4939193;28;20281;-62
2024/03/29 11:21:32;;;;;;;1.63;1.53;;;16.00;99.90;;;;;;4936144;29;20251;-63
2024/03/29 11:24:04;;;;;;;1.40;1.30;;;16.40;99.90;;;;;;4945935;29;20839;-61
2024/03/29 11:30:18;;;;;;;1.13;1.10;;;16.20;99.90;;;;;;4951095;29;20718;-62
2024/03/29 11:32:45;;;;;;;1.10;1.10;;;16.70;99.90;;;;;;4935383;29;20289;-62
2024/03/29 11:35:19;;;;;;;1.07;1.07;;;16.80;99.90;;;;;;4935721;29;20248;-62
2024/03/29 11:37:56;;;;;;;1.53;1.10;;;16.80;99.90;;;;;;4935077;29;20313;-62
2024/03/29 11:40:24;;;;;;;1.07;0.93;;;16.90;99.90;;;;;;4934994;29;20359;-62
2024/03/29 11:46:35;;;;;;;1.90;1.07;;;17.90;99.90;;;;;;4936237;29;20276;-62
2024/03/29 11:49:03;;;;;;;0.90;0.90;;;18.80;99.90;;;;;;4937914;29;20219;-62
2024/03/29 11:51:50;;;;;;;0.80;0.80;;;19.70;99.90;;;;;;4953860;29;20224;-62
2024/03/29 11:54:20;;;;;;;1.63;0.70;;;19.90;99.90;;;;;;4953691;29;20238;-62
2024/03/29 11:56:49;;;;;;;1.00;1.00;;;19.50;99.90;;;;;;4950284;28;20196;-63
2024/03/29 12:02:59;;;;;;;0.70;0.70;;;18.40;99.90;;;;;;4947815;28;20222;-62
2024/03/29 12:09:07;;;;;;;0.90;0.90;;;17.30;99.90;;;;;;4948827;29;20274;-62
2024/03/29 12:11:35;;;;;;;0.90;0.87;;;17.20;99.90;;;;;;4953736;28;20197;-61
2024/03/29 12:14:04;;;;;;;1.60;0.87;;;17.50;99.90;;;;;;4954045;28;20308;-62
2024/03/29 12:16:31;;;;;;;0.63;0.63;;;17.70;99.90;;;;;;4953530;29;20253;-62
2024/03/29 12:19:00;;;;;;;0.87;0.80;;;17.90;99.90;;;;;;4937046;29;20603;-62
2024/03/29 12:22:05;;;;;;;0.80;0.80;;;18.20;99.90;;;;;;4959098;28;20302;-63
2024/03/29 12:28:15;;;;;;;0.90;0.90;;;17.40;99.90;;;;;;4935534;29;20266;-62
2024/03/29 12:30:44;;;;;;;0.60;0.60;;;17.10;99.90;;;;;;4950756;29;20634;-62
2024/03/29 12:33:15;;;;;;;0.90;0.90;;;17.10;99.90;;;;;;4961528;28;20373;-62
2024/03/29 12:39:26;;;;;;;0.70;0.70;;;17.00;99.90;;;;;;4957390;28;20305;-63
2024/03/29 12:42:00;;;;;;;0.90;0.90;;;17.00;99.90;;;;;;4972805;28;20305;-62
2024/03/29 12:48:11;;;;;;;1.10;0.87;;;17.40;99.90;;;;;;4935209;29;20223;-63
2024/03/29 12:50:41;;;;;;;1.13;1.13;;;17.20;99.90;;;;;;4953109;28;20188;-61
2024/03/29 12:53:09;;;;;;;0.80;0.80;;;17.20;99.90;;;;;;4953837;29;20631;-62
2024/03/29 12:55:41;;;;;;;0.80;0.80;;;17.30;99.90;;;;;;4953382;29;20282;-62
2024/03/29 13:01:50;;;;;;;0.80;0.80;;;17.30;99.90;;;;;;4935410;28;20319;-62
2024/03/29 13:18:26;;;;;;;1.27;1.20;;;16.30;99.90;;;;;;4956249;28;20253;-62
2024/03/29 13:20:56;;;;;;;1.50;1.40;;;16.10;99.90;;;;;;4973313;28;20303;-62
2024/03/29 13:23:23;;;;;;;1.47;1.30;;;15.90;99.90;;;;;;4974560;28;20284;-62
2024/03/29 13:25:53;;;;;;;2.00;1.20;;;15.70;99.90;;;;;;4972192;28;20705;-62
2024/03/29 13:32:01;;;;;;;1.83;1.43;;;15.70;99.90;;;;;;4938719;29;20228;-62
2024/03/29 13:34:30;;;;;;;1.23;1.23;;;15.70;99.90;;;;;;4949419;29;20274;-62
2024/03/29 13:36:57;;;;;;;1.10;1.10;;;15.60;99.90;;;;;;4974435;28;20318;-62
2024/03/29 13:39:25;;;;;;;2.33;1.20;;;15.60;99.90;;;;;;4958949;28;20232;-62
2024/03/29 13:41:52;;;;;;;1.20;1.20;;;15.60;99.90;;;;;;4962402;28;20199;-62
2024/03/29 13:44:20;;;;;;;1.00;1.00;;;15.70;99.90;;;;;;4956835;29;20196;-62
2024/03/29 13:50:29;;;;;;;1.10;1.10;;;16.30;99.90;;;;;;4938029;29;20663;-62
2024/03/29 13:52:57;;;;;;;1.20;1.10;;;16.30;99.90;;;;;;4937059;29;20354;-62
2024/03/29 13:58:50;;;;;;;1.30;1.20;;;16.20;99.90;;;;;;4941341;28;20234;-61
2024/03/29 14:04:58;;;;;;;1.10;1.00;;;15.90;99.90;;;;;;4966792;28;20197;-62
2024/03/29 14:07:28;;;;;;;0.90;0.90;;;15.80;99.90;;;;;;4965126;28;20755;-62
2024/03/29 14:09:55;;;;;;;1.10;1.10;;;15.80;99.90;;;;;;4956190;28;20309;-62
2024/03/29 14:16:04;;;;;;;2.80;1.30;;;15.90;99.90;;;;;;4958120;28;20617;-62
2024/03/29 14:18:31;;;;;;;2.63;0.97;;;16.10;99.90;;;;;;4935483;29;20261;-62
2024/03/29 14:20:59;;;;;;;1.43;1.10;;;16.20;99.90;;;;;;4937665;29;20228;-62
2024/03/29 14:27:08;;;;;;;1.20;1.10;;;16.20;99.90;;;;;;4966024;28;20271;-62
2024/03/29 14:29:36;;;;;;;3.33;1.30;;;16.20;99.90;;;;;;4974597;28;20625;-62
2024/03/29 14:32:04;;;;;;;2.47;1.10;;;15.80;99.90;;;;;;4974824;28;20228;-61
2024/03/29 14:34:34;;;;;;;1.20;1.17;;;15.60;99.90;;;;;;4973896;28;20258;-61
2024/03/29 14:37:02;;;;;;;1.20;1.10;;;15.60;99.90;;;;;;4974387;28;20247;-62
2024/03/29 14:39:31;;;;;;;1.00;1.00;;;15.60;99.90;;;;;;4966432;28;20631;-61
2024/03/29 14:42:02;;;;;;;0.90;0.90;;;15.50;99.90;;;;;;4945320;28;20224;-62
2024/03/29 14:44:31;;;;;;;0.90;0.90;;;15.50;99.90;;;;;;4936163;29;20199;-61
2024/03/29 14:46:58;;;;;;;2.00;1.00;;;15.50;99.90;;;;;;4936279;29;20757;-61
2024/03/29 14:49:27;;;;;;;3.13;1.00;;;15.50;99.90;;;;;;4956610;28;20235;-62
2024/03/29 14:51:54;;;;;;;1.63;1.20;;;15.30;99.90;;;;;;4974282;28;20223;-61
2024/03/29 14:54:23;;;;;;;1.00;1.00;;;15.30;99.90;;;;;;4974126;28;20323;-61
2024/03/29 14:56:50;;;;;;;2.00;1.10;;;15.30;99.90;;;;;;4961180;28;20227;-61
2024/03/29 14:59:18;;;;;;;1.30;1.13;;;15.50;99.90;;;;;;4941662;29;20221;-61
2024/03/29 15:01:47;;;;;;;2.10;1.10;;;15.50;99.90;;;;;;4964031;28;20773;-61
2024/03/29 15:04:15;;;;;;;1.70;1.00;;;15.70;99.90;;;;;;4955278;28;20319;-62
2024/03/29 15:10:10;;;;;;;0.90;0.90;;;16.00;99.90;;;;;;4950230;28;20556;-62
2024/03/29 15:19:50;;;;;;;1.00;1.00;;;15.90;99.90;;;;;;4957758;28;20230;-61
2024/03/29 15:22:18;;;;;;;1.80;1.10;;;15.80;99.90;;;;;;4954219;29;20277;-62
2024/03/29 15:24:45;;;;;;;1.40;1.30;;;15.80;99.90;;;;;;4954013;29;20228;-61
2024/03/29 15:27:26;;;;;;;1.23;1.10;;;15.70;99.90;;;;;;4954016;28;20240;-62
2024/03/29 15:33:36;;;;;;;1.10;1.10;;;15.60;99.90;;;;;;4945701;29;20240;-63
2024/03/29 15:36:05;;;;;;;1.30;1.20;;;15.60;99.90;;;;;;4946877;29;20625;-62
2024/03/29 15:38:33;;;;;;;1.30;1.30;;;15.60;99.90;;;;;;4943579;28;20574;-61
2024/03/29 15:41:39;;;;;;;1.00;1.00;;;15.60;99.90;;;;;;4972123;28;20309;-62
2024/03/29 15:51:29;;;;;;;2.23;1.30;;;15.60;99.90;;;;;;4948540;28;20222;-62
2024/03/29 15:54:00;;;;;;;1.70;1.20;;;15.60;99.90;;;;;;4942026;29;20302;-62
2024/03/29 15:56:48;;;;;;;1.53;1.43;;;15.50;99.90;;;;;;4948419;28;20218;-62
2024/03/29 15:59:16;;;;;;;1.40;1.37;;;15.50;99.90;;;;;;4973113;28;20221;-62
2024/03/29 16:01:43;;;;;;;3.47;1.47;;;15.40;99.90;;;;;;4973308;28;20225;-62
2024/03/29 16:04:11;;;;;;;1.40;1.30;;;15.40;99.90;;;;;;4973251;28;20322;-63
2024/03/29 16:10:21;;;;;;;1.50;1.40;;;15.50;99.90;;;;;;4956303;28;20304;-62
2024/03/29 16:16:30;;;;;;;1.37;1.20;;;15.30;99.90;;;;;;4936312;29;20246;-61
2024/03/29 16:18:57;;;;;;;2.20;1.30;;;15.10;99.90;;;;;;4953089;29;20229;-62
2024/03/29 16:21:25;;;;;;;1.80;1.20;;;15.10;99.90;;;;;;4944493;28;20683;-62
2024/03/29 16:23:52;;;;;;;3.30;1.43;;;15.10;99.90;;;;;;4960791;28;20239;-62
2024/03/29 16:29:48;;;;;;;2.03;1.40;;;14.90;99.90;;;;;;4974064;28;20260;-62
2024/03/29 16:32:14;;;;;;;2.30;1.20;;;14.80;99.90;;;;;;4958093;28;20231;-62
2024/03/29 16:34:42;;;;;;;2.20;1.40;;;14.80;99.90;;;;;;4953356;28;20239;-62
2024/03/29 16:40:50;;;;;;;3.90;1.30;;;14.90;99.90;;;;;;4953466;29;20231;-62
2024/03/29 16:43:17;;;;;;;2.43;1.30;;;14.80;99.90;;;;;;4936853;29;20225;-62
2024/03/29 16:45:45;;;;;;;2.33;1.23;;;14.70;1.00;;;;;;4955068;29;20223;-61
2024/03/29 16:48:12;;;;;;;1.20;1.20;;;14.70;28.60;;;;;;4957035;29;20307;-62
2024/03/29 16:50:39;;;;;;;1.47;1.40;;;14.70;1.00;;;;;;4956717;28;20192;-62
2024/03/29 16:53:07;;;;;;;1.40;1.30;;;14.70;99.90;;;;;;4974708;28;20192;-61
2024/03/29 16:55:37;;;;;;;2.30;1.40;;;14.60;93.40;;;;;;4976432;28;20248;-62
2024/03/29 17:05:28;;;;;;;2.13;1.40;;;14.40;1.00;;;;;;4939113;29;20214;-61
2024/03/29 17:08:32;;;;;;;1.30;1.30;;;14.40;62.80;;;;;;4937502;29;20640;-62
2024/03/29 17:11:20;;;;;;;2.70;1.60;;;14.40;99.90;;;;;;4938411;29;20705;-62
2024/03/29 17:13:46;;;;;;;1.87;1.70;;;14.30;99.90;;;;;;4937456;29;20735;-61
2024/03/29 17:16:13;;;;;;;1.97;1.50;;;14.30;99.90;;;;;;4937537;29;20656;-62
2024/03/29 17:18:40;;;;;;;1.73;1.60;;;14.30;99.90;;;;;;4949973;28;20283;-61
2024/03/29 17:21:09;;;;;;;1.87;1.73;;;14.30;99.90;;;;;;4956406;29;20229;-62
2024/03/29 17:27:17;;;;;;;2.20;2.00;;;14.20;1.00;;;;;;4958928;28;20223;-62
2024/03/29 17:33:25;;;;;;;3.07;1.83;;;14.10;1.00;;;;;;4938616;29;20582;-62
2024/03/29 17:35:52;;;;;;;1.90;1.80;;;14.10;1.00;;;;;;4936981;29;20654;-62
2024/03/29 17:38:20;;;;;;;1.90;1.80;;;14.00;1.00;;;;;;4940809;29;20197;-62
2024/03/29 17:41:24;;;;;;;3.40;1.53;;;14.00;1.00;;;;;;4948996;28;20223;-62
2024/03/29 17:43:51;;;;;;;5.17;2.00;;;13.90;1.00;;;;;;4959125;28;20881;-62
2024/03/29 17:46:19;;;;;;;1.70;1.70;;;13.80;1.00;;;;;;4975332;28;20696;-61
2024/03/29 17:52:27;;;;;;;2.67;2.27;;;13.70;1.00;;;;;;4950580;29;20232;-61
2024/03/29 17:55:14;;;;;;;2.00;1.90;;;13.70;1.00;;;;;;4938274;29;20259;-62
2024/03/29 17:57:41;;;;;;;2.30;2.07;;;13.60;1.00;;;;;;4937218;29;20667;-62
2024/03/29 18:03:50;;;;;;;2.77;2.23;;;13.50;1.00;;;;;;4949762;28;20213;-62
2024/03/29 18:06:16;;;;;;;2.50;2.40;;;13.50;1.00;;;;;;4949055;28;20228;-61
2024/03/29 18:12:26;;;;;;;3.57;2.70;;;13.40;1.00;;;;;;4956729;28;20257;-61